Time;durP1;ratioP1;P1;durP2;ratioP2;P2;SDS_P1;SDS_P2;PMS_P1;PMS_P2;Temp;Humidity;BMP_temperature;BMP_pressure;BME280_temperature;BME280_humidity;BME280_pressure;Samples;Min_cycle;Max_cycle;Signal;HPM_P1;HPM_P2
2022/12/17 13:06:36;;;;;;;36.13;22.23;;;;;;;;;;5089806;28;20052;-56
2022/12/17 13:09:14;;;;;;;41.33;24.55;;;5.20;99.90;;;;;;5074196;28;20047;-53
2022/12/17 13:11:42;;;;;;;42.42;25.63;;;;;;;;;;5074676;28;20040;-53
2022/12/17 13:14:14;;;;;;;40.78;24.25;;;;;;;;;;5092513;28;20040;-54
2022/12/17 13:16:49;;;;;;;39.88;25.25;;;4.70;99.90;;;;;;5092637;28;20068;-54
2022/12/17 13:19:20;;;;;;;39.38;24.23;;;4.40;99.90;;;;;;5092530;28;20072;-55
2022/12/17 13:21:45;;;;;;;40.35;24.23;;;4.70;99.90;;;;;;5092629;28;20047;-52
2022/12/17 13:24:12;;;;;;;44.70;25.77;;;;;;;;;;5092575;28;20032;-55
2022/12/17 13:26:38;;;;;;;43.50;25.52;;;4.70;99.90;;;;;;5074198;28;20047;-55
2022/12/17 13:29:10;;;;;;;44.45;27.08;;;4.60;99.90;;;;;;5074210;28;20066;-55
2022/12/17 13:32:01;;;;;;;43.10;25.00;;;4.20;99.90;;;;;;5092383;28;20035;-55
2022/12/17 13:34:35;;;;;;;40.63;25.52;;;4.70;99.90;;;;;;5074688;28;20098;-53
2022/12/17 13:37:06;;;;;;;39.80;23.88;;;;;;;;;;5091594;28;20032;-53
2022/12/17 13:39:42;;;;;;;42.35;27.15;;;4.30;99.90;;;;;;5092382;28;20044;-55
2022/12/17 13:42:27;;;;;;;48.55;26.58;;;;;;;;;;5092269;28;20122;-55
2022/12/17 13:44:53;;;;;;;48.75;26.40;;;3.80;99.90;;;;;;5092256;28;20035;-53
2022/12/17 13:47:37;;;;;;;46.88;27.08;;;;;;;;;;5091334;28;20039;-54
2022/12/17 13:50:35;;;;;;;48.00;26.40;;;2.90;99.90;;;;;;5085285;28;20154;-54
2022/12/17 13:53:11;;;;;;;44.20;25.27;;;;;;;;;;5092403;28;20039;-53
2022/12/17 13:55:38;;;;;;;49.45;26.23;;;2.30;99.90;;;;;;5091800;28;20032;-54
2022/12/17 13:58:03;;;;;;;48.63;28.50;;;2.20;99.90;;;;;;5091763;28;20131;-55
2022/12/17 14:00:31;;;;;;;49.67;28.13;;;;;;;;;;5092030;28;20116;-55
2022/12/17 14:03:10;;;;;;;49.58;27.98;;;2.40;99.90;;;;;;5091991;28;20039;-56
2022/12/17 14:05:41;;;;;;;51.05;28.23;;;2.30;99.90;;;;;;5091642;28;20068;-54
2022/12/17 14:08:07;;;;;;;49.08;27.60;;;2.00;99.90;;;;;;5091261;28;20028;-56
2022/12/17 14:10:33;;;;;;;50.53;29.50;;;2.10;99.90;;;;;;5091722;28;20409;-53
2022/12/17 14:13:12;;;;;;;51.55;30.77;;;;;;;;;;5091850;28;20032;-53
2022/12/17 14:15:44;;;;;;;51.38;28.83;;;2.10;99.90;;;;;;5091598;28;20039;-55
2022/12/17 14:18:14;;;;;;;50.35;28.10;;;1.80;99.90;;;;;;5091086;28;20032;-55
2022/12/17 14:20:40;;;;;;;54.33;29.58;;;1.50;99.90;;;;;;5091702;28;20067;-54
2022/12/17 14:23:27;;;;;;;53.42;30.95;;;1.30;99.90;;;;;;5073161;28;20508;-55
2022/12/17 14:25:52;;;;;;;57.33;29.98;;;1.50;99.90;;;;;;5091555;28;20039;-55
2022/12/17 14:28:48;;;;;;;58.17;30.85;;;;;;;;;;5090764;28;20051;-56
2022/12/17 14:31:14;;;;;;;53.20;31.17;;;;;;;;;;5083633;28;20044;-55
2022/12/17 14:33:41;;;;;;;53.83;30.63;;;0.90;99.90;;;;;;5091361;28;20043;-55
2022/12/17 14:36:09;;;;;;;57.90;32.03;;;;;;;;;;5091424;28;20036;-52
2022/12/17 14:38:35;;;;;;;55.75;30.67;;;1.00;99.90;;;;;;5072343;28;20138;-56
2022/12/17 14:42:24;;;;;;;59.90;31.65;;;;;;;;;;5091317;28;20089;-55
2022/12/17 14:43:56;;;;;;;61.42;34.83;;;0.70;99.90;;;;;;5090782;28;20101;-55
2022/12/17 14:46:21;;;;;;;62.55;35.15;;;0.60;99.90;;;;;;5091285;28;20044;-55
2022/12/17 14:49:01;;;;;;;61.47;32.80;;;0.40;99.90;;;;;;5088938;28;20040;-52
2022/12/17 14:51:32;;;;;;;65.88;34.35;;;;;;;;;;5052976;28;20396;-56
2022/12/17 14:54:24;;;;;;;66.28;34.38;;;0.50;99.90;;;;;;5090880;28;20405;-57
2022/12/17 14:56:51;;;;;;;66.88;34.13;;;;;;;;;;5090343;28;20039;-54
2022/12/17 14:59:30;;;;;;;62.80;35.40;;;;;;;;;;5072375;28;20047;-56
2022/12/17 15:01:57;;;;;;;77.80;37.70;;;;;;;;;;5082974;28;20458;-56
2022/12/17 15:04:23;;;;;;;75.97;36.45;;;;;;;;;;5090442;28;20157;-56
2022/12/17 15:06:50;;;;;;;73.32;37.72;;;;;;;;;;5090479;28;20092;-56
2022/12/17 15:09:15;;;;;;;70.50;35.53;;;0.00;99.90;;;;;;5090333;28;20055;-57
2022/12/17 15:11:41;;;;;;;71.40;35.97;;;;;;;;;;5072214;28;20040;-55
2022/12/17 15:14:07;;;;;;;71.00;36.72;;;;;;;;;;5090758;28;20085;-55
2022/12/17 15:16:33;;;;;;;75.85;38.45;;;;;;;;;;5089901;28;20245;-56
2022/12/17 15:19:00;;;;;;;74.07;37.00;;;;;;;;;;5072078;28;20093;-56
2022/12/17 15:21:26;;;;;;;74.55;38.05;;;;;;;;;;5090548;28;20044;-56
2022/12/17 15:23:52;;;;;;;72.40;37.60;;;;;;;;;;5090604;28;20206;-57
2022/12/17 15:26:18;;;;;;;82.47;38.50;;;;;;;;;;5090562;28;20123;-56
2022/12/17 15:28:44;;;;;;;81.47;40.20;;;;;;;;;;5089727;28;20036;-55
2022/12/17 15:31:12;;;;;;;79.15;38.58;;;;;;;;;;5090584;28;20036;-56
2022/12/17 15:33:38;;;;;;;82.55;37.85;;;-0.40;99.90;;;;;;5089868;28;20043;-56
2022/12/17 15:36:04;;;;;;;76.13;37.70;;;-0.50;99.90;;;;;;5090615;28;20024;-56
2022/12/17 15:38:30;;;;;;;78.72;37.25;;;;;;;;;;5072170;28;20039;-56
2022/12/17 15:40:59;;;;;;;78.70;40.10;;;;;;;;;;5103177;28;20069;-56
2022/12/17 15:43:24;;;;;;;78.53;38.50;;;-0.40;99.90;;;;;;5090163;28;20047;-55
2022/12/17 15:45:51;;;;;;;78.30;39.70;;;-0.40;99.90;;;;;;5089887;28;20032;-55
2022/12/17 15:48:18;;;;;;;69.82;37.88;;;;;;;;;;5087987;28;20036;-56
2022/12/17 15:50:44;;;;;;;75.13;38.00;;;;;;;;;;5089928;28;20044;-55
2022/12/17 15:53:10;;;;;;;83.22;38.85;;;;;;;;;;5090185;28;20028;-56
2022/12/17 15:55:37;;;;;;;71.32;37.30;;;-0.20;99.90;;;;;;5072282;28;20381;-55
2022/12/17 15:58:03;;;;;;;76.47;38.00;;;;;;;;;;5089741;28;20482;-55
2022/12/17 16:00:29;;;;;;;78.32;37.88;;;;;;;;;;5089786;28;20051;-54
2022/12/17 16:02:55;;;;;;;80.75;42.13;;;;;;;;;;5089932;28;20115;-53
2022/12/17 16:05:22;;;;;;;84.60;40.60;;;;;;;;;;5089972;28;20040;-55
2022/12/17 16:07:48;;;;;;;80.25;40.03;;;-0.60;99.90;;;;;;5071272;28;20043;-55
2022/12/17 16:10:14;;;;;;;84.78;37.65;;;-0.70;99.90;;;;;;5089791;28;20044;-56
2022/12/17 16:12:40;;;;;;;82.18;41.55;;;-0.60;99.90;;;;;;5089851;28;20048;-57
2022/12/17 16:15:07;;;;;;;78.80;39.75;;;;;;;;;;5098582;28;20036;-56
2022/12/17 16:17:33;;;;;;;85.90;40.65;;;-0.50;99.90;;;;;;5089673;28;20040;-56
2022/12/17 16:20:02;;;;;;;79.97;38.25;;;;;;;;;;5102601;28;20036;-56
2022/12/17 16:22:28;;;;;;;73.03;37.35;;;;;;;;;;5098299;28;20124;-53
2022/12/17 16:24:54;;;;;;;77.10;39.15;;;;;;;;;;5096539;28;20285;-56
2022/12/17 16:27:21;;;;;;;81.70;38.47;;;;;;;;;;5071049;28;20039;-56
2022/12/17 16:29:47;;;;;;;86.25;41.10;;;;;;;;;;5092642;28;20044;-55
2022/12/17 16:32:13;;;;;;;86.78;42.08;;;;;;;;;;5059080;28;20070;-56
2022/12/17 16:34:42;;;;;;;83.95;41.97;;;;;;;;;;5093482;28;20036;-56
2022/12/17 16:37:08;;;;;;;90.55;42.78;;;-0.90;99.90;;;;;;5092899;28;20032;-53
2022/12/17 16:39:34;;;;;;;94.57;41.58;;;;;;;;;;5093727;28;20119;-54
2022/12/17 16:42:00;;;;;;;82.72;41.42;;;;;;;;;;5093584;28;20300;-53
2022/12/17 16:44:26;;;;;;;85.63;41.03;;;;;;;;;;5093474;28;20040;-56
2022/12/17 16:46:52;;;;;;;89.00;41.83;;;;;;;;;;5092983;28;20050;-56
2022/12/17 16:49:22;;;;;;;84.15;40.30;;;-1.00;99.90;;;;;;5091791;28;20040;-55
2022/12/17 16:51:52;;;;;;;92.63;44.15;;;;;;;;;;5093555;28;20044;-56
2022/12/17 16:54:21;;;;;;;87.63;39.55;;;-1.00;99.90;;;;;;5093289;28;20032;-57
2022/12/17 16:56:47;;;;;;;92.63;39.70;;;;;;;;;;5074753;28;20036;-56
2022/12/17 16:59:14;;;;;;;91.28;43.88;;;-0.90;99.90;;;;;;5099357;28;20047;-56
2022/12/17 17:01:43;;;;;;;84.70;42.88;;;;;;;;;;5091501;28;20032;-57
2022/12/17 17:04:10;;;;;;;87.72;39.70;;;;;;;;;;5093330;28;20044;-56
2022/12/17 17:06:40;;;;;;;88.75;41.35;;;;;;;;;;5074985;28;20375;-56
2022/12/17 17:09:06;;;;;;;86.38;42.13;;;;;;;;;;5092537;28;20074;-56
2022/12/17 17:11:32;;;;;;;86.93;40.83;;;;;;;;;;5074541;28;20098;-53
2022/12/17 17:13:58;;;;;;;88.28;40.78;;;;;;;;;;5074769;28;20040;-56
2022/12/17 17:16:25;;;;;;;85.95;41.22;;;;;;;;;;5093441;28;20040;-54
2022/12/17 17:18:52;;;;;;;93.15;42.40;;;-1.00;99.90;;;;;;5092177;28;20040;-55
2022/12/17 17:21:17;;;;;;;87.28;42.85;;;-0.90;99.90;;;;;;5092860;28;20044;-56
2022/12/17 17:23:43;;;;;;;85.65;39.17;;;;;;;;;;5092558;28;20085;-52
2022/12/17 17:26:10;;;;;;;96.32;41.20;;;;;;;;;;5095079;28;20434;-56
2022/12/17 17:28:37;;;;;;;93.78;44.22;;;-1.00;99.90;;;;;;5092062;28;20040;-57
2022/12/17 17:31:05;;;;;;;94.50;45.10;;;;;;;;;;5092845;28;20032;-56
2022/12/17 17:33:32;;;;;;;99.65;46.17;;;;;;;;;;5092287;28;20036;-57
2022/12/17 17:36:05;;;;;;;103.78;50.20;;;;;;;;;;5096839;28;20031;-55
2022/12/17 17:38:35;;;;;;;87.78;42.40;;;-0.90;99.90;;;;;;5091715;28;20448;-56
2022/12/17 17:41:02;;;;;;;97.32;45.78;;;;;;;;;;5092592;28;20064;-56
2022/12/17 17:43:28;;;;;;;96.47;48.22;;;;;;;;;;5094740;28;20059;-54
2022/12/17 17:45:57;;;;;;;103.57;47.40;;;;;;;;;;5084410;28;20063;-57
2022/12/17 17:48:23;;;;;;;89.82;43.92;;;;;;;;;;5090507;28;20460;-54
2022/12/17 17:50:59;;;;;;;98.82;47.88;;;;;;;;;;5091946;28;20555;-57
2022/12/17 17:53:25;;;;;;;89.97;42.28;;;;;;;;;;5092093;28;20040;-54
2022/12/17 17:55:51;;;;;;;90.55;43.22;;;;;;;;;;5097837;28;20038;-54
2022/12/17 17:58:16;;;;;;;93.55;44.53;;;-1.50;99.90;;;;;;5073675;28;20046;-56
2022/12/17 18:00:42;;;;;;;91.13;42.15;;;-1.30;99.90;;;;;;5073969;28;20044;-56
2022/12/17 18:03:08;;;;;;;83.03;41.90;;;-1.50;99.90;;;;;;5091804;28;20397;-55
2022/12/17 18:05:37;;;;;;;96.13;44.33;;;;;;;;;;5091897;28;20036;-52
2022/12/17 18:08:04;;;;;;;87.07;38.95;;;;;;;;;;5091589;28;20096;-53
2022/12/17 18:10:30;;;;;;;96.57;40.90;;;;;;;;;;5091622;28;20048;-56
2022/12/17 18:15:41;;;;;;;89.32;41.05;;;;;;;;;;5091824;28;20040;-55
2022/12/17 18:18:07;;;;;;;92.35;41.00;;;;;;;;;;5090836;28;20119;-56
2022/12/17 18:20:33;;;;;;;95.68;44.42;;;;;;;;;;5091827;28;20417;-53
2022/12/17 18:22:59;;;;;;;92.70;42.42;;;;;;;;;;5091859;28;20293;-53
2022/12/17 18:25:25;;;;;;;95.05;43.40;;;;;;;;;;5091634;28;20104;-54
2022/12/17 18:27:52;;;;;;;90.07;41.03;;;;;;;;;;5091276;28;20110;-56
2022/12/17 18:30:18;;;;;;;95.25;42.88;;;-1.60;99.90;;;;;;5073204;28;20094;-55
2022/12/17 18:32:48;;;;;;;100.28;42.35;;;-1.60;99.90;;;;;;5073081;28;20085;-55
2022/12/17 18:35:14;;;;;;;100.28;47.53;;;;;;;;;;5091532;28;20084;-56
2022/12/17 18:37:40;;;;;;;92.80;44.45;;;;;;;;;;5072625;28;20043;-54
2022/12/17 18:40:07;;;;;;;100.53;43.97;;;-1.50;99.90;;;;;;5091511;28;20036;-56
2022/12/17 18:45:17;;;;;;;85.05;42.63;;;-1.80;99.90;;;;;;5090982;28;20367;-55
2022/12/17 18:47:43;;;;;;;97.13;42.03;;;;;;;;;;5089507;28;20036;-57
2022/12/17 18:50:11;;;;;;;100.32;46.13;;;;;;;;;;5091382;28;20040;-55
2022/12/17 18:52:37;;;;;;;105.53;43.75;;;;;;;;;;5098188;28;20118;-57
2022/12/17 18:55:03;;;;;;;97.70;41.10;;;;;;;;;;5091092;28;20039;-57
2022/12/17 18:57:29;;;;;;;91.57;42.28;;;;;;;;;;5093268;28;20114;-57
2022/12/17 18:59:55;;;;;;;98.30;45.95;;;-1.80;99.90;;;;;;5091079;28;20112;-55
2022/12/17 19:02:21;;;;;;;98.47;42.97;;;-1.80;99.90;;;;;;5091069;28;20175;-56
2022/12/17 19:04:47;;;;;;;97.40;41.03;;;-1.70;99.90;;;;;;5090799;28;20481;-56
2022/12/17 19:07:12;;;;;;;96.18;42.90;;;-1.90;99.90;;;;;;5090305;28;20453;-56
2022/12/17 19:09:39;;;;;;;100.13;44.30;;;;;;;;;;5090415;28;20048;-55
2022/12/17 19:12:06;;;;;;;108.50;45.75;;;;;;;;;;5072814;28;20230;-55
2022/12/17 19:14:32;;;;;;;96.18;44.28;;;;;;;;;;5090569;28;20351;-57
2022/12/17 19:16:58;;;;;;;99.35;43.92;;;;;;;;;;5090326;28;20044;-54
2022/12/17 19:19:25;;;;;;;93.55;43.30;;;;;;;;;;5090768;28;20046;-54
2022/12/17 19:21:53;;;;;;;100.88;45.55;;;;;;;;;;5090521;28;20047;-55
2022/12/17 19:24:20;;;;;;;98.53;43.45;;;;;;;;;;5090436;28;20046;-55
2022/12/17 19:26:46;;;;;;;96.20;42.25;;;-2.00;99.90;;;;;;5072259;28;20540;-55
2022/12/17 19:29:13;;;;;;;100.07;42.40;;;-1.80;99.90;;;;;;5090552;28;20044;-54
2022/12/17 19:31:39;;;;;;;108.82;46.38;;;;;;;;;;5090219;28;20590;-53
2022/12/17 19:34:06;;;;;;;106.22;44.65;;;;;;;;;;5095764;28;20027;-54
2022/12/17 19:36:34;;;;;;;100.95;45.08;;;-2.10;99.90;;;;;;5096883;28;20035;-54
2022/12/17 19:39:02;;;;;;;101.25;41.85;;;;;;;;;;5089539;28;20043;-51
2022/12/17 19:41:30;;;;;;;111.65;47.88;;;;;;;;;;5090532;28;20040;-54
2022/12/17 19:43:57;;;;;;;105.65;44.65;;;;;;;;;;5090213;28;20563;-51
2022/12/17 19:46:24;;;;;;;113.15;43.55;;;;;;;;;;5072485;28;20079;-56
2022/12/17 19:48:50;;;;;;;103.28;45.17;;;-2.20;99.90;;;;;;5070328;28;20559;-54
2022/12/17 19:51:19;;;;;;;113.45;47.70;;;-1.90;99.90;;;;;;5090102;28;20524;-52
2022/12/17 19:53:45;;;;;;;102.03;44.42;;;;;;;;;;5089974;28;20032;-52
2022/12/17 19:56:13;;;;;;;112.25;46.97;;;;;;;;;;5090441;28;20043;-55
2022/12/17 19:58:39;;;;;;;116.88;46.70;;;-2.20;99.90;;;;;;5089993;28;20048;-54
2022/12/17 20:01:10;;;;;;;119.88;50.05;;;-2.20;99.90;;;;;;5090177;28;20039;-55
2022/12/17 20:03:37;;;;;;;125.32;49.08;;;;;;;;;;5093255;28;20398;-55
2022/12/17 20:06:03;;;;;;;108.10;46.13;;;;;;;;;;5080800;28;20040;-52
2022/12/17 20:08:30;;;;;;;117.00;48.97;;;;;;;;;;5093777;28;20047;-54
2022/12/17 20:10:56;;;;;;;109.78;45.78;;;-2.30;99.90;;;;;;5094227;28;20032;-55
2022/12/17 20:13:22;;;;;;;115.68;46.20;;;-2.40;99.90;;;;;;5076126;28;20048;-55
2022/12/17 20:15:47;;;;;;;118.20;46.65;;;-2.50;99.90;;;;;;5094272;28;20040;-55
2022/12/17 20:18:13;;;;;;;102.97;44.80;;;;;;;;;;5093532;28;20051;-53
2022/12/17 20:20:39;;;;;;;109.88;43.80;;;;;;;;;;5093847;28;20302;-54
2022/12/17 20:23:05;;;;;;;136.35;50.83;;;;;;;;;;5076148;28;20039;-55
2022/12/17 20:25:31;;;;;;;110.38;46.55;;;;;;;;;;5076058;28;20055;-55
2022/12/17 20:27:57;;;;;;;106.90;44.33;;;;;;;;;;5093890;28;20081;-54
2022/12/17 20:30:24;;;;;;;115.97;44.40;;;;;;;;;;5093799;28;20485;-55
2022/12/17 20:32:52;;;;;;;115.75;44.47;;;-2.60;99.90;;;;;;5093889;28;20044;-55
2022/12/17 20:35:19;;;;;;;118.20;43.08;;;;;;;;;;5093583;28;20043;-55
2022/12/17 20:37:45;;;;;;;111.32;44.83;;;;;;;;;;5093422;28;20093;-55
2022/12/17 20:40:11;;;;;;;107.97;44.17;;;-2.50;99.90;;;;;;5093705;28;20043;-55
2022/12/17 20:42:37;;;;;;;112.18;39.97;;;;;;;;;;5094207;28;20127;-53
2022/12/17 20:45:03;;;;;;;118.75;46.67;;;;;;;;;;5094014;28;20051;-54
2022/12/17 20:47:29;;;;;;;116.75;41.95;;;;;;;;;;5095262;28;20260;-55
2022/12/17 20:49:55;;;;;;;115.35;41.40;;;;;;;;;;5097623;28;20044;-52
2022/12/17 20:52:21;;;;;;;117.25;43.75;;;;;;;;;;5100252;28;20040;-53
2022/12/17 20:54:48;;;;;;;106.55;42.30;;;-2.50;99.90;;;;;;5093830;28;20036;-54
2022/12/17 20:57:14;;;;;;;109.53;44.95;;;;;;;;;;5096481;28;20085;-55
2022/12/17 20:59:39;;;;;;;104.03;42.42;;;-2.30;99.90;;;;;;5093339;28;20032;-52
2022/12/17 21:02:06;;;;;;;116.93;45.58;;;;;;;;;;5069410;28;20458;-55
2022/12/17 21:04:32;;;;;;;120.78;45.70;;;;;;;;;;5080673;28;20032;-55
2022/12/17 21:06:58;;;;;;;120.75;45.47;;;;;;;;;;5089536;28;20165;-55
2022/12/17 21:09:24;;;;;;;123.50;47.58;;;-2.40;99.90;;;;;;5079855;28;20051;-55
2022/12/17 21:11:50;;;;;;;118.97;46.05;;;;;;;;;;5058335;28;20036;-56
2022/12/17 21:14:16;;;;;;;121.22;47.47;;;-2.30;99.90;;;;;;5080202;28;20129;-55
2022/12/17 21:16:44;;;;;;;115.50;42.90;;;;;;;;;;5076025;28;20039;-55
2022/12/17 21:19:15;;;;;;;117.25;43.40;;;;;;;;;;5084437;28;20040;-55
2022/12/17 21:21:41;;;;;;;113.90;44.22;;;-2.40;99.90;;;;;;5098821;28;20045;-55
2022/12/17 21:24:07;;;;;;;122.95;45.70;;;-2.30;99.90;;;;;;5092833;28;20036;-56
2022/12/17 21:26:34;;;;;;;101.80;40.92;;;;;;;;;;5081971;28;20035;-55
2022/12/17 21:29:02;;;;;;;107.13;43.13;;;-2.00;99.90;;;;;;5083270;28;20044;-55
2022/12/17 21:31:32;;;;;;;112.30;44.65;;;;;;;;;;5083315;28;20080;-53
2022/12/17 21:34:01;;;;;;;109.25;42.72;;;-2.20;99.90;;;;;;5082081;28;20059;-54
2022/12/17 21:36:27;;;;;;;117.95;47.38;;;;;;;;;;5082033;28;20106;-53
2022/12/17 21:38:53;;;;;;;111.72;45.15;;;;;;;;;;5082544;28;20168;-54
2022/12/17 21:41:21;;;;;;;122.25;47.60;;;;;;;;;;5063876;28;20091;-50
2022/12/17 21:43:51;;;;;;;101.47;44.20;;;;;;;;;;5093464;28;20040;-53
2022/12/17 21:46:17;;;;;;;109.90;42.65;;;-2.40;99.90;;;;;;5077681;28;20036;-54
2022/12/17 21:48:43;;;;;;;114.22;46.60;;;;;;;;;;5079491;28;20033;-56
2022/12/17 21:51:10;;;;;;;98.55;42.40;;;;;;;;;;5070789;28;20032;-54
2022/12/17 21:53:40;;;;;;;107.47;44.60;;;;;;;;;;5101429;28;20036;-55
2022/12/17 21:56:08;;;;;;;111.88;42.25;;;;;;;;;;5084593;28;20040;-55
2022/12/17 21:58:34;;;;;;;111.07;44.70;;;;;;;;;;5090324;28;20075;-56
2022/12/17 22:01:09;;;;;;;108.80;45.05;;;;;;;;;;5076586;28;20032;-54
2022/12/17 22:03:35;;;;;;;112.25;47.53;;;-2.10;99.90;;;;;;5065519;28;20090;-54
2022/12/17 22:06:08;;;;;;;108.20;44.72;;;;;;;;;;5079549;28;20166;-56
2022/12/17 22:08:34;;;;;;;113.97;52.45;;;-2.40;99.90;;;;;;5057562;28;20035;-57
2022/12/17 22:11:02;;;;;;;103.35;44.95;;;;;;;;;;5054367;28;20485;-54
2022/12/17 22:16:13;;;;;;;104.03;42.80;;;;;;;;;;5084915;28;20506;-55
2022/12/17 22:18:39;;;;;;;113.28;45.80;;;-2.50;99.90;;;;;;5084819;28;20035;-56
2022/12/17 22:21:05;;;;;;;99.90;43.45;;;;;;;;;;5077994;28;20417;-56
2022/12/17 22:23:31;;;;;;;104.25;42.00;;;-2.50;99.90;;;;;;5083742;28;20043;-55
2022/12/17 22:25:57;;;;;;;103.30;43.75;;;;;;;;;;5061215;28;20039;-56
2022/12/17 22:28:23;;;;;;;116.53;50.20;;;;;;;;;;5090224;28;20040;-56
2022/12/17 22:33:34;;;;;;;106.97;41.80;;;-2.70;99.90;;;;;;5076471;28;20040;-56
2022/12/17 22:36:03;;;;;;;112.30;43.95;;;-2.50;99.90;;;;;;5082269;28;20085;-56
2022/12/17 22:38:29;;;;;;;112.13;44.03;;;;;;;;;;5065097;28;20043;-56
2022/12/17 22:41:05;;;;;;;104.30;44.45;;;-2.30;99.90;;;;;;5092369;28;20738;-56
2022/12/17 22:43:31;;;;;;;102.70;39.92;;;-2.70;99.90;;;;;;5082596;28;20105;-56
2022/12/17 22:45:58;;;;;;;120.30;48.28;;;;;;;;;;5081395;28;20028;-56
2022/12/17 22:48:23;;;;;;;109.13;43.78;;;-2.60;99.90;;;;;;5085868;28;20412;-55
2022/12/17 22:50:49;;;;;;;111.65;44.80;;;;;;;;;;5101989;28;20043;-57
2022/12/17 22:53:15;;;;;;;113.80;48.42;;;-2.70;99.90;;;;;;5086661;28;20037;-52
2022/12/17 22:55:41;;;;;;;103.75;41.97;;;-2.60;99.90;;;;;;5072424;28;20029;-55
2022/12/17 22:58:07;;;;;;;104.78;43.80;;;;;;;;;;5071620;28;20161;-53
2022/12/17 23:00:34;;;;;;;105.50;43.38;;;-2.50;99.90;;;;;;5083695;28;20071;-56
2022/12/17 23:03:00;;;;;;;111.78;47.33;;;-2.60;99.90;;;;;;5079666;28;20037;-56
2022/12/17 23:05:27;;;;;;;123.25;45.70;;;-2.60;99.90;;;;;;5077458;28;20405;-55
2022/12/17 23:07:53;;;;;;;110.53;42.33;;;;;;;;;;5089087;28;20122;-55
2022/12/17 23:10:20;;;;;;;103.20;43.65;;;;;;;;;;5072304;28;20043;-56
2022/12/17 23:12:49;;;;;;;107.35;45.83;;;;;;;;;;5074814;28;20064;-55
2022/12/17 23:15:15;;;;;;;110.35;44.78;;;;;;;;;;5076525;28;20072;-56
2022/12/17 23:17:41;;;;;;;125.35;45.60;;;-2.50;99.90;;;;;;5087226;28;20079;-56
2022/12/17 23:20:07;;;;;;;110.00;41.53;;;;;;;;;;5084269;28;20079;-56
2022/12/17 23:22:33;;;;;;;115.82;47.63;;;;;;;;;;5076554;28;20044;-56
2022/12/17 23:24:59;;;;;;;109.78;46.17;;;;;;;;;;5081922;28;20052;-55
2022/12/17 23:27:25;;;;;;;100.68;41.53;;;;;;;;;;5078043;28;20083;-55
2022/12/17 23:29:52;;;;;;;95.72;40.95;;;;;;;;;;5084014;28;20036;-52
2022/12/17 23:32:18;;;;;;;114.68;44.30;;;;;;;;;;5075918;28;20033;-54
2022/12/17 23:34:44;;;;;;;111.93;47.85;;;;;;;;;;5059955;28;20040;-53
2022/12/17 23:37:10;;;;;;;107.50;43.85;;;;;;;;;;5059756;28;20071;-53
2022/12/17 23:39:36;;;;;;;116.20;45.22;;;;;;;;;;5059461;28;20056;-53
2022/12/17 23:42:02;;;;;;;104.63;44.80;;;;;;;;;;5081310;28;20032;-56
2022/12/17 23:44:28;;;;;;;104.70;41.88;;;;;;;;;;5077774;28;20051;-53
2022/12/17 23:46:53;;;;;;;110.28;44.15;;;-2.50;99.90;;;;;;5081323;28;20040;-55
2022/12/17 23:49:19;;;;;;;104.85;43.33;;;-2.50;99.90;;;;;;5067571;28;20493;-55
2022/12/17 23:51:45;;;;;;;110.40;45.80;;;;;;;;;;5090153;28;20413;-56
2022/12/17 23:54:11;;;;;;;92.07;37.92;;;;;;;;;;5090363;28;20417;-55
2022/12/17 23:56:37;;;;;;;106.50;43.33;;;;;;;;;;5081275;28;20037;-56
2022/12/17 23:59:04;;;;;;;102.55;41.60;;;;;;;;;;5066569;28;20123;-53
